Time;durP1;ratioP1;P1;durP2;ratioP2;P2;SDS_P1;SDS_P2;PMS_P1;PMS_P2;Temp;Humidity;BMP_temperature;BMP_pressure;BME280_temperature;BME280_humidity;BME280_pressure;Samples;Min_cycle;Max_cycle;Signal;HPM_P1;HPM_P2
2022/07/03 00:02:12;;;;;;;2.50;1.08;;;16.40;99.90;;;16.26;100.00;97684.78;5035632;28;20075;-68
2022/07/03 00:04:39;;;;;;;3.13;1.33;;;16.50;99.90;;;15.76;100.00;97682.69;5036555;28;20134;-67
2022/07/03 00:07:07;;;;;;;1.95;1.25;;;16.50;99.90;;;15.54;100.00;97688.38;5035542;28;20532;-66
2022/07/03 00:09:34;;;;;;;2.40;1.30;;;16.40;99.90;;;15.65;100.00;97684.19;5049879;28;20508;-67
2022/07/03 00:12:02;;;;;;;5.68;1.27;;;16.20;99.90;;;15.53;100.00;97676.22;5035289;28;20081;-65
2022/07/03 00:14:29;;;;;;;3.50;1.40;;;16.20;99.90;;;15.35;100.00;97684.28;5038644;28;20513;-66
2022/07/03 00:16:56;;;;;;;3.78;1.50;;;16.10;99.90;;;15.22;100.00;97691.16;5040929;28;20087;-66
2022/07/03 00:19:23;;;;;;;2.10;1.33;;;16.00;99.90;;;15.15;100.00;97689.84;5041968;28;20219;-67
2022/07/03 00:21:58;;;;;;;2.60;1.10;;;16.00;99.90;;;15.03;100.00;97700.09;5041947;28;20059;-67
2022/07/03 00:24:32;;;;;;;2.47;1.02;;;15.90;99.90;;;15.36;100.00;97692.94;5057375;28;20128;-68
2022/07/03 00:27:02;;;;;;;3.95;1.17;;;15.80;99.90;;;15.56;100.00;97692.59;5040741;28;20076;-67
2022/07/03 00:29:37;;;;;;;3.67;1.10;;;16.00;99.90;;;15.82;100.00;97695.41;5043242;28;20081;-66
2022/07/03 00:32:09;;;;;;;2.25;1.20;;;16.10;99.90;;;15.77;100.00;97692.25;5043542;28;20103;-66
2022/07/03 00:34:38;;;;;;;1.90;1.10;;;16.20;99.90;;;15.84;100.00;97689.13;5041516;28;20527;-66
2022/07/03 00:37:08;;;;;;;3.35;1.00;;;16.20;99.90;;;15.52;100.00;97691.09;5040203;28;20419;-67
2022/07/03 00:39:41;;;;;;;2.80;1.20;;;16.20;99.90;;;15.39;100.00;97695.38;5041250;28;20049;-64
2022/07/03 00:42:10;;;;;;;3.53;1.45;;;16.10;99.90;;;15.17;100.00;97685.38;5044543;28;20080;-67
2022/07/03 00:44:53;;;;;;;5.13;1.30;;;16.00;99.90;;;15.13;100.00;97689.94;5039104;28;20059;-66
2022/07/03 00:47:23;;;;;;;3.72;1.08;;;15.90;99.90;;;15.24;100.00;97682.28;5041224;28;20103;-67
2022/07/03 00:49:53;;;;;;;2.40;1.20;;;15.90;99.90;;;15.09;100.00;97677.97;5042670;28;20117;-67
2022/07/03 00:52:22;;;;;;;2.90;1.15;;;15.80;99.90;;;14.84;100.00;97674.19;5055580;28;20056;-67
2022/07/03 00:54:58;;;;;;;2.80;1.20;;;15.70;99.90;;;14.85;100.00;97675.03;5041601;28;20164;-66
2022/07/03 00:57:28;;;;;;;3.28;1.20;;;15.60;99.90;;;14.53;100.00;97674.22;5042097;28;20154;-66
2022/07/03 00:59:57;;;;;;;6.90;1.92;;;15.50;99.90;;;14.37;100.00;97679.50;5041563;28;20107;-64
2022/07/03 01:02:44;;;;;;;3.38;1.30;;;15.40;99.90;;;14.15;100.00;97677.25;5043596;28;20195;-66
2022/07/03 01:05:39;;;;;;;4.00;1.38;;;15.20;99.90;;;14.20;100.00;97672.59;5042848;28;20041;-65
2022/07/03 01:08:19;;;;;;;3.20;1.40;;;15.10;99.90;;;14.45;100.00;97677.28;5036938;28;20103;-65
2022/07/03 01:11:33;;;;;;;1.92;1.17;;;15.10;99.90;;;14.16;100.00;97678.91;5039913;28;20084;-66
2022/07/03 01:14:39;;;;;;;1.90;1.10;;;15.10;99.90;;;14.10;100.00;97679.28;5040034;28;20128;-65
2022/07/03 01:17:19;;;;;;;2.55;1.30;;;15.00;99.90;;;13.97;100.00;97679.94;5053961;28;20041;-65
2022/07/03 01:19:50;;;;;;;2.88;1.40;;;14.90;99.90;;;14.15;100.00;97683.28;5042142;28;20073;-67
2022/07/03 01:22:30;;;;;;;3.05;1.50;;;14.90;99.90;;;14.22;100.00;97679.41;5038075;28;20375;-67
2022/07/03 01:25:25;;;;;;;3.22;1.52;;;14.80;99.90;;;14.09;100.00;97682.78;5038321;28;20140;-67
2022/07/03 01:28:17;;;;;;;7.60;1.70;;;14.80;99.90;;;13.88;100.00;97682.22;5040521;28;20052;-67
2022/07/03 01:30:52;;;;;;;3.05;1.38;;;14.80;99.90;;;13.70;100.00;97682.25;5039605;28;20519;-68
2022/07/03 01:33:31;;;;;;;4.45;1.40;;;14.70;99.90;;;13.79;100.00;97681.75;5036028;28;20784;-66
2022/07/03 01:36:01;;;;;;;2.17;1.38;;;14.60;99.90;;;13.66;100.00;97680.75;5039662;28;20140;-67
2022/07/03 01:38:30;;;;;;;2.72;1.60;;;14.60;99.90;;;13.60;100.00;97684.53;5040146;28;20140;-66
2022/07/03 01:40:58;;;;;;;5.43;1.75;;;14.50;99.90;;;13.53;100.00;97683.16;5043238;28;20521;-67
2022/07/03 01:43:30;;;;;;;4.07;1.92;;;14.50;99.90;;;13.56;100.00;97677.78;5041015;28;20097;-67
2022/07/03 01:46:01;;;;;;;3.40;1.60;;;14.50;99.90;;;13.51;100.00;97674.59;5038932;28;20063;-67
2022/07/03 01:48:30;;;;;;;3.50;1.83;;;14.50;99.90;;;13.58;100.00;97677.72;5037369;28;20057;-67
2022/07/03 01:50:59;;;;;;;3.42;1.55;;;14.50;99.90;;;13.57;100.00;97679.47;5038744;28;20140;-67
2022/07/03 01:53:29;;;;;;;2.45;1.42;;;14.50;99.90;;;13.59;100.00;97680.25;5036309;28;20047;-65
2022/07/03 01:55:58;;;;;;;4.00;1.75;;;14.40;99.90;;;13.38;100.00;97676.16;5039731;28;20092;-66
2022/07/03 01:58:26;;;;;;;6.35;2.15;;;14.40;99.90;;;13.22;100.00;97681.28;5038596;28;20232;-67
2022/07/03 02:01:20;;;;;;;2.65;1.40;;;14.30;99.90;;;13.30;100.00;97673.94;5037718;28;20045;-67
2022/07/03 02:04:03;;;;;;;3.95;2.05;;;14.30;99.90;;;13.29;100.00;97676.63;5043233;28;20052;-67
2022/07/03 02:07:09;;;;;;;2.47;1.55;;;14.30;99.90;;;13.26;100.00;97675.00;5037194;28;20228;-66
2022/07/03 02:10:02;;;;;;;3.28;1.88;;;14.30;99.90;;;13.19;100.00;97676.22;5057448;28;20132;-65
2022/07/03 02:12:39;;;;;;;3.53;1.90;;;14.20;99.90;;;13.29;100.00;97679.22;5038747;28;20047;-67
2022/07/03 02:15:09;;;;;;;3.13;1.50;;;14.10;99.90;;;13.26;100.00;97677.59;5041410;28;20095;-67
2022/07/03 02:17:45;;;;;;;4.03;1.88;;;14.10;99.90;;;13.13;100.00;97672.16;5039239;28;20050;-67
2022/07/03 02:20:16;;;;;;;2.30;1.65;;;14.10;99.90;;;13.05;100.00;97679.56;5038509;28;20124;-66
2022/07/03 02:23:03;;;;;;;3.22;1.63;;;14.10;99.90;;;13.08;100.00;97684.59;5037163;28;20045;-65
2022/07/03 02:25:40;;;;;;;3.55;1.63;;;14.10;99.90;;;13.05;100.00;97682.16;5035222;28;20151;-67
2022/07/03 02:28:24;;;;;;;3.53;1.92;;;14.00;99.90;;;13.06;100.00;97678.63;5037413;28;20136;-66
2022/07/03 02:30:57;;;;;;;3.35;1.65;;;14.00;99.90;;;13.27;100.00;97686.25;5054813;28;20053;-66
2022/07/03 02:33:29;;;;;;;3.95;1.58;;;14.00;99.90;;;13.16;100.00;97692.88;5039785;28;20072;-67
2022/07/03 02:35:57;;;;;;;4.63;1.55;;;14.00;99.90;;;13.33;100.00;97693.78;5052206;28;20080;-66
2022/07/03 02:38:26;;;;;;;2.60;1.67;;;14.00;99.90;;;13.36;100.00;97694.50;5039262;28;20232;-67
2022/07/03 02:41:12;;;;;;;3.65;1.60;;;14.00;99.90;;;13.15;100.00;97692.94;5037724;28;20128;-65
2022/07/03 02:43:47;;;;;;;3.72;1.60;;;14.10;99.90;;;13.15;100.00;97704.22;5040368;28;20136;-67
2022/07/03 02:46:50;;;;;;;3.30;1.63;;;14.00;99.90;;;13.25;100.00;97702.00;5037542;28;20136;-67
2022/07/03 02:49:48;;;;;;;3.03;1.52;;;14.00;99.90;;;13.39;100.00;97696.94;5038476;28;20059;-65
2022/07/03 02:52:38;;;;;;;2.67;1.38;;;14.00;99.90;;;13.33;100.00;97694.63;5039509;28;20110;-67
2022/07/03 02:55:43;;;;;;;2.20;1.20;;;14.00;99.90;;;13.68;100.00;97696.31;5039222;28;20041;-67
2022/07/03 02:58:25;;;;;;;3.33;1.35;;;14.10;99.90;;;13.57;100.00;97694.25;5036400;28;20063;-66
2022/07/03 03:00:59;;;;;;;3.13;1.35;;;14.20;99.90;;;13.69;100.00;97688.41;5036567;28;20136;-65
2022/07/03 03:03:31;;;;;;;2.40;0.90;;;14.20;99.90;;;13.94;100.00;97697.53;5050491;28;20066;-67
2022/07/03 03:06:04;;;;;;;2.30;1.10;;;14.30;99.90;;;13.93;100.00;97695.84;5040189;28;20048;-67
2022/07/03 03:08:42;;;;;;;2.72;1.33;;;14.40;99.90;;;14.00;100.00;97694.56;5041946;28;20167;-66
2022/07/03 03:11:30;;;;;;;3.05;0.95;;;14.50;99.90;;;14.16;100.00;97695.44;5036544;28;20254;-67
2022/07/03 03:13:58;;;;;;;2.75;0.90;;;14.60;99.90;;;14.14;100.00;97691.19;5040809;28;20482;-66
2022/07/03 03:16:26;;;;;;;2.33;0.90;;;14.60;99.90;;;14.31;100.00;97701.56;5039779;28;20160;-66
2022/07/03 03:18:53;;;;;;;3.33;0.80;;;14.80;99.90;;;14.48;100.00;97698.00;5052865;28;20126;-67
2022/07/03 03:21:26;;;;;;;2.63;1.00;;;14.90;99.90;;;14.66;100.00;97690.91;5039829;28;20053;-66
2022/07/03 03:23:53;;;;;;;3.00;0.90;;;15.00;99.90;;;14.74;100.00;97695.72;5038227;28;20564;-67
2022/07/03 03:26:21;;;;;;;2.60;0.90;;;15.20;99.90;;;14.86;100.00;97700.22;5036917;28;20052;-67
2022/07/03 03:28:50;;;;;;;1.73;0.70;;;15.30;99.90;;;14.93;100.00;97691.09;5038176;28;20156;-66
2022/07/03 03:31:19;;;;;;;1.45;0.80;;;15.40;99.90;;;15.00;100.00;97702.03;5038290;28;20045;-67
2022/07/03 03:33:49;;;;;;;1.95;0.82;;;15.50;99.90;;;15.09;100.00;97700.66;5036835;28;20457;-65
2022/07/03 03:36:20;;;;;;;1.23;0.88;;;15.60;99.90;;;15.11;100.00;97699.63;5035498;28;20088;-66
2022/07/03 03:38:48;;;;;;;2.72;0.80;;;15.60;99.90;;;15.16;100.00;97701.97;5036704;28;20084;-65
2022/07/03 03:41:16;;;;;;;2.60;0.80;;;15.70;99.90;;;15.24;100.00;97697.16;5037112;28;20445;-66
2022/07/03 03:43:44;;;;;;;2.58;0.90;;;15.70;99.90;;;15.29;100.00;97696.88;5039296;28;20481;-66
2022/07/03 03:46:14;;;;;;;2.50;0.80;;;15.80;99.90;;;15.23;100.00;97693.66;5039644;28;20049;-66
2022/07/03 03:48:41;;;;;;;2.13;0.65;;;15.80;99.90;;;15.24;100.00;97691.91;5036759;28;20417;-66
2022/07/03 03:51:09;;;;;;;3.10;0.80;;;15.80;99.90;;;15.18;100.00;97695.72;5036450;28;20105;-66
2022/07/03 03:53:36;;;;;;;3.35;1.00;;;15.90;99.90;;;14.97;100.00;97695.22;5033298;28;20053;-65
2022/07/03 03:56:06;;;;;;;2.97;0.93;;;15.90;99.90;;;14.96;100.00;97696.16;5038072;28;20488;-66
2022/07/03 03:58:37;;;;;;;4.75;1.15;;;15.80;99.90;;;14.47;100.00;97711.16;5038017;28;20251;-67
2022/07/03 04:01:07;;;;;;;3.55;1.23;;;15.50;99.90;;;13.78;100.00;97721.00;5037405;28;20104;-66
2022/07/03 04:03:35;;;;;;;2.35;1.02;;;15.20;99.90;;;14.02;100.00;97722.28;5036868;28;20126;-66
2022/07/03 04:06:02;;;;;;;2.20;1.30;;;14.90;99.90;;;13.76;100.00;97726.28;5037515;28;20135;-66
2022/07/03 04:08:31;;;;;;;2.70;1.27;;;14.70;99.90;;;13.91;100.00;97732.47;5041893;28;20088;-65
2022/07/03 04:10:58;;;;;;;2.42;1.02;;;14.70;99.90;;;14.27;100.00;97727.94;5037709;28;20047;-66
2022/07/03 04:13:25;;;;;;;3.47;1.00;;;14.80;99.90;;;14.03;100.00;97728.34;5035112;28;20148;-65
2022/07/03 04:15:54;;;;;;;2.60;1.00;;;14.80;99.90;;;14.26;100.00;97726.25;5033119;28;20132;-67
2022/07/03 04:18:22;;;;;;;2.35;1.00;;;14.80;99.90;;;14.46;100.00;97720.78;5038969;28;20072;-67
2022/07/03 04:20:49;;;;;;;4.93;1.30;;;14.90;99.90;;;14.40;100.00;97723.72;5035378;28;20053;-65
2022/07/03 04:23:16;;;;;;;2.65;0.88;;;15.00;99.90;;;14.73;100.00;97722.75;5037548;28;20480;-65
2022/07/03 04:25:43;;;;;;;2.70;0.80;;;15.20;99.90;;;14.80;100.00;97721.47;5037615;28;20084;-67
2022/07/03 04:28:11;;;;;;;2.92;0.98;;;15.30;99.90;;;14.91;100.00;97726.94;5036015;28;20076;-67
2022/07/03 04:30:47;;;;;;;2.30;0.90;;;15.50;99.90;;;15.09;100.00;97727.63;5035116;28;20057;-67
2022/07/03 04:33:15;;;;;;;5.50;1.10;;;15.70;99.90;;;14.88;100.00;97726.28;5040337;28;20049;-67
2022/07/03 04:35:42;;;;;;;3.00;0.80;;;15.70;99.90;;;14.85;100.00;97720.31;5034817;28;20085;-65
2022/07/03 04:38:09;;;;;;;3.28;0.70;;;15.80;99.90;;;15.21;100.00;97719.09;5034982;28;20133;-67
2022/07/03 04:40:36;;;;;;;2.28;0.98;;;15.90;99.90;;;14.81;100.00;97721.41;5038510;28;20120;-65
2022/07/03 04:43:03;;;;;;;3.00;0.80;;;15.90;99.90;;;15.03;100.00;97722.78;5041544;28;20127;-65
2022/07/03 04:45:30;;;;;;;2.08;0.90;;;15.90;99.90;;;14.99;100.00;97724.72;5038240;28;20103;-65
2022/07/03 04:47:57;;;;;;;4.05;0.90;;;15.90;99.90;;;15.21;100.00;97723.47;5040830;28;20049;-65
2022/07/03 04:50:24;;;;;;;2.97;0.80;;;16.00;99.90;;;14.94;100.00;97723.28;5041522;28;20102;-64
2022/07/03 04:52:51;;;;;;;2.35;0.90;;;16.00;99.90;;;15.18;100.00;97727.09;5035940;28;20199;-63
2022/07/03 04:55:18;;;;;;;1.70;0.82;;;16.00;99.90;;;15.10;100.00;97726.72;5034593;28;20046;-66
2022/07/03 04:57:45;;;;;;;3.90;0.90;;;16.00;99.90;;;15.59;100.00;97722.97;5037826;28;20128;-65
2022/07/03 05:00:13;;;;;;;2.13;0.75;;;16.20;99.90;;;15.79;100.00;97719.16;5038135;28;20123;-66
2022/07/03 05:02:39;;;;;;;2.33;0.80;;;16.30;99.90;;;15.93;100.00;97731.41;5035369;28;20469;-66
2022/07/03 05:05:07;;;;;;;4.65;0.70;;;16.50;99.90;;;16.03;100.00;97728.13;5036297;28;20049;-65
2022/07/03 05:07:34;;;;;;;1.83;0.68;;;16.70;99.90;;;16.14;100.00;97734.44;5040600;28;20049;-64
2022/07/03 05:10:01;;;;;;;2.28;0.80;;;16.80;99.90;;;16.25;100.00;97727.59;5039246;28;20449;-64
2022/07/03 05:12:28;;;;;;;2.35;0.80;;;17.00;99.90;;;15.99;100.00;97731.03;5041240;28;20128;-66
2022/07/03 05:14:55;;;;;;;3.00;0.90;;;17.00;99.90;;;16.40;100.00;97728.41;5038761;28;20409;-66
2022/07/03 05:17:22;;;;;;;3.17;0.73;;;17.10;99.90;;;16.47;100.00;97740.19;5039299;28;20164;-66
2022/07/03 05:20:23;;;;;;;2.58;0.70;;;17.30;99.90;;;16.67;100.00;97728.44;5042714;28;20080;-66
2022/07/03 05:22:36;;;;;;;1.70;0.60;;;17.40;99.90;;;16.92;100.00;97730.31;5038914;28;20164;-65
2022/07/03 05:25:04;;;;;;;3.58;0.63;;;17.50;99.90;;;16.88;100.00;97741.94;5042259;28;20080;-65
2022/07/03 05:27:31;;;;;;;2.90;0.75;;;17.70;99.90;;;16.98;100.00;97728.22;5040911;28;20126;-66
2022/07/03 05:29:58;;;;;;;2.95;0.70;;;17.80;99.90;;;17.18;100.00;97734.78;5041321;28;21496;-65
2022/07/03 05:32:25;;;;;;;1.55;0.60;;;18.00;99.90;;;17.24;100.00;97731.72;5041025;28;20080;-65
2022/07/03 05:34:52;;;;;;;2.03;0.60;;;18.00;99.90;;;17.14;100.00;97734.97;5040544;28;20088;-65
2022/07/03 05:37:19;;;;;;;2.45;0.70;;;18.10;99.90;;;17.32;100.00;97737.28;5041970;28;20126;-65
2022/07/03 05:39:46;;;;;;;1.02;0.70;;;18.20;99.90;;;17.15;100.00;97743.66;5040763;28;20052;-66
2022/07/03 05:42:13;;;;;;;1.20;0.60;;;18.30;99.90;;;17.55;100.00;97740.97;5039095;28;20424;-65
2022/07/03 05:44:40;;;;;;;1.45;0.50;;;18.30;99.90;;;17.69;100.00;97730.38;5037458;28;20076;-66
2022/07/03 05:47:07;;;;;;;1.27;0.60;;;18.50;99.90;;;17.71;100.00;97735.53;5038246;28;20117;-66
2022/07/03 05:49:34;;;;;;;1.20;0.50;;;18.60;99.90;;;17.94;100.00;97739.19;5041040;28;20136;-66
2022/07/03 05:52:01;;;;;;;2.58;0.65;;;18.70;99.90;;;17.81;100.00;97727.84;5040381;28;20186;-67
2022/07/03 05:54:28;;;;;;;2.00;0.60;;;18.80;99.90;;;17.79;100.00;97730.59;5039795;28;20227;-67
2022/07/03 05:56:55;;;;;;;1.65;0.68;;;18.90;99.90;;;18.04;100.00;97737.63;5037721;28;20449;-67
2022/07/03 05:59:23;;;;;;;2.63;0.60;;;18.90;99.90;;;17.80;100.00;97740.13;5043526;28;20707;-65
2022/07/03 06:01:49;;;;;;;0.88;0.50;;;18.90;99.90;;;18.16;100.00;97735.91;5040382;28;20136;-67
2022/07/03 06:04:16;;;;;;;3.70;0.73;;;19.00;99.90;;;17.91;100.00;97742.06;5036757;28;20049;-65
2022/07/03 06:06:44;;;;;;;2.30;0.85;;;19.00;99.90;;;17.98;100.00;97738.88;5040167;28;20049;-65
2022/07/03 06:09:11;;;;;;;2.33;0.60;;;19.10;99.90;;;18.00;100.00;97743.19;5038140;28;20087;-65
2022/07/03 06:11:43;;;;;;;2.25;0.60;;;19.20;99.90;;;18.13;100.00;97747.47;5041216;28;20062;-65
2022/07/03 06:14:10;;;;;;;3.88;0.80;;;19.30;99.90;;;18.16;100.00;97752.50;5037062;28;20072;-66
2022/07/03 06:16:37;;;;;;;2.25;0.70;;;19.30;99.90;;;18.64;100.00;97749.09;5036869;28;20136;-67
2022/07/03 06:19:04;;;;;;;2.33;1.20;;;19.50;99.90;;;18.41;100.00;97756.03;5035895;28;20045;-67
2022/07/03 06:21:32;;;;;;;5.57;0.90;;;19.50;99.90;;;18.28;100.00;97755.22;5037666;28;20088;-66
2022/07/03 06:23:59;;;;;;;1.70;0.68;;;19.50;99.90;;;18.23;100.00;97759.97;5039697;28;20128;-66
2022/07/03 06:26:28;;;;;;;1.77;0.68;;;19.50;99.90;;;18.24;100.00;97757.22;5039075;28;20159;-67
2022/07/03 06:28:56;;;;;;;3.97;0.60;;;19.50;99.90;;;18.45;100.00;97765.38;5035798;28;20737;-65
2022/07/03 06:31:23;;;;;;;2.10;0.55;;;19.60;99.90;;;18.41;100.00;97770.97;5037108;28;20054;-66
2022/07/03 06:33:50;;;;;;;1.17;0.70;;;19.60;99.90;;;18.55;100.00;97768.19;5037557;28;20057;-66
2022/07/03 06:36:17;;;;;;;2.08;0.70;;;19.70;99.90;;;18.78;100.00;97771.78;5039231;28;20175;-65
2022/07/03 06:38:44;;;;;;;4.05;0.88;;;19.80;99.90;;;18.87;100.00;97768.50;5039706;28;20117;-65
2022/07/03 06:41:11;;;;;;;2.75;0.55;;;19.80;99.90;;;19.16;100.00;97758.44;5038989;28;20619;-66
2022/07/03 06:43:39;;;;;;;3.55;0.85;;;19.90;99.90;;;18.90;100.00;97762.16;5040330;28;20056;-66
2022/07/03 06:46:06;;;;;;;3.75;0.80;;;20.10;99.90;;;19.10;100.00;97758.06;5035112;28;20552;-66
2022/07/03 06:48:33;;;;;;;3.25;0.80;;;20.20;99.90;;;19.21;100.00;97761.56;5040202;28;20053;-65
2022/07/03 06:51:00;;;;;;;1.40;0.60;;;20.30;99.90;;;19.20;100.00;97765.16;5038617;28;20423;-67
2022/07/03 06:53:27;;;;;;;2.05;0.80;;;20.40;99.90;;;19.33;100.00;97758.97;5039064;28;20570;-65
2022/07/03 06:55:54;;;;;;;3.50;0.80;;;20.40;99.90;;;19.44;100.00;97765.09;5039889;28;20510;-66
2022/07/03 06:58:21;;;;;;;1.77;0.90;;;20.40;99.90;;;19.77;100.00;97765.31;5038762;28;20089;-66
2022/07/03 07:00:48;;;;;;;1.98;0.70;;;20.70;99.90;;;20.02;100.00;97765.06;5036136;28;20116;-66
2022/07/03 07:03:15;;;;;;;2.78;0.60;;;20.90;99.90;;;19.93;100.00;97771.06;5038691;28;20041;-66
2022/07/03 07:05:42;;;;;;;2.63;0.85;;;20.90;99.90;;;20.18;100.00;97775.25;5040377;28;20140;-65
2022/07/03 07:08:09;;;;;;;2.95;0.55;;;21.00;99.90;;;20.21;100.00;97772.38;5037121;28;20559;-65
2022/07/03 07:10:36;;;;;;;3.28;0.60;;;21.20;99.90;;;19.97;100.00;97775.13;5035979;28;20536;-67
2022/07/03 07:13:03;;;;;;;1.05;0.60;;;21.30;99.90;;;20.32;100.00;97768.91;5037011;28;20069;-67
2022/07/03 07:15:30;;;;;;;1.98;0.80;;;21.40;99.90;;;20.51;100.00;97780.63;5039906;28;20585;-64
2022/07/03 07:17:57;;;;;;;2.63;0.73;;;21.50;99.90;;;20.32;100.00;97779.47;5038469;28;20072;-66
2022/07/03 07:20:24;;;;;;;1.17;0.50;;;21.70;99.90;;;20.43;100.00;97774.13;5038664;28;20071;-65
2022/07/03 07:22:51;;;;;;;3.33;0.52;;;21.70;99.90;;;20.34;100.00;97782.78;5040024;28;20045;-66
2022/07/03 07:25:18;;;;;;;2.35;0.50;;;21.60;99.90;;;20.44;100.00;97772.38;5039673;28;20416;-64
2022/07/03 07:27:45;;;;;;;1.48;0.65;;;21.70;99.90;;;20.81;100.00;97779.97;5034367;28;20603;-66
2022/07/03 07:30:12;;;;;;;1.20;0.40;;;21.80;99.90;;;20.77;100.00;97774.09;5038454;28;20120;-65
2022/07/03 07:32:40;;;;;;;2.25;0.50;;;21.90;99.90;;;20.91;100.00;97778.25;5039674;28;20462;-66
2022/07/03 07:35:08;;;;;;;5.25;0.60;;;;;;;21.00;100.00;97780.13;5037066;28;20081;-66
2022/07/03 07:37:35;;;;;;;4.10;0.90;;;22.10;99.90;;;20.96;100.00;97786.66;5039186;28;20140;-66
2022/07/03 07:40:02;;;;;;;2.15;0.60;;;22.20;99.90;;;21.29;100.00;97764.53;5036248;28;20102;-67
2022/07/03 07:42:29;;;;;;;1.90;0.57;;;22.20;99.90;;;21.84;100.00;97769.63;5038945;28;20072;-67
2022/07/03 07:44:56;;;;;;;3.50;0.57;;;22.50;99.90;;;21.68;100.00;97782.47;5035998;28;20088;-66
2022/07/03 07:47:23;;;;;;;4.07;0.50;;;22.70;99.90;;;21.23;100.00;97780.91;5037749;28;20981;-67
2022/07/03 07:49:50;;;;;;;1.48;0.40;;;22.80;99.90;;;21.66;100.00;97776.47;5041329;28;20117;-67
2022/07/03 07:52:17;;;;;;;2.35;0.50;;;22.70;99.90;;;21.63;100.00;97780.22;5036522;28;20124;-67
2022/07/03 07:54:44;;;;;;;1.77;0.50;;;22.60;99.90;;;21.92;100.00;97772.47;5036793;28;20051;-67
2022/07/03 07:57:11;;;;;;;0.85;0.43;;;22.80;99.90;;;22.54;100.00;97769.78;5037047;28;20052;-67
2022/07/03 07:59:39;;;;;;;3.13;0.40;;;23.00;99.90;;;22.66;100.00;97781.09;5035308;28;20124;-68
2022/07/03 08:07:42;;;;;;;2.47;0.60;;;23.60;99.90;;;22.23;100.00;97780.41;5039147;28;20059;-67
2022/07/03 08:10:09;;;;;;;10.32;0.70;;;23.60;99.90;;;22.23;100.00;97783.06;5038760;28;20168;-67
2022/07/03 08:12:36;;;;;;;2.00;0.57;;;23.50;99.90;;;22.59;100.00;97775.50;5036521;28;20051;-67
2022/07/03 08:15:04;;;;;;;1.38;0.40;;;23.40;99.90;;;22.59;100.00;97777.31;5040033;28;20048;-64
2022/07/03 08:17:31;;;;;;;1.38;0.50;;;23.50;99.90;;;22.36;100.00;97782.81;5037537;28;20496;-66
2022/07/03 08:19:57;;;;;;;1.27;0.50;;;23.50;99.90;;;22.62;100.00;97771.75;5037698;28;20132;-65
2022/07/03 08:22:25;;;;;;;0.93;0.40;;;23.50;99.90;;;22.76;100.00;97776.63;5032359;28;20124;-65
2022/07/03 08:24:51;;;;;;;1.73;0.43;;;23.50;99.90;;;22.96;100.00;97773.03;5040183;28;20053;-67
2022/07/03 08:27:19;;;;;;;6.15;0.60;;;23.80;99.90;;;23.04;100.00;97783.00;5019206;28;20718;-67
2022/07/03 08:29:46;;;;;;;3.50;0.60;;;24.00;99.90;;;23.26;100.00;97779.19;5036254;28;20501;-66
2022/07/03 08:32:13;;;;;;;3.03;0.50;;;24.10;99.90;;;23.57;100.00;97773.75;5035333;28;20064;-66
2022/07/03 08:34:40;;;;;;;3.40;0.50;;;24.30;99.90;;;23.76;100.00;97773.72;5038288;28;20080;-67
2022/07/03 08:37:08;;;;;;;1.67;0.50;;;24.40;99.90;;;23.27;100.00;97782.72;5036609;28;20370;-65
2022/07/03 08:39:35;;;;;;;1.15;0.50;;;24.60;99.90;;;23.53;100.00;97773.19;5051341;28;20081;-66
2022/07/03 08:42:04;;;;;;;2.00;0.50;;;24.60;99.90;;;23.40;100.00;97772.66;5042269;28;20045;-66
2022/07/03 08:44:32;;;;;;;2.42;0.45;;;24.60;99.90;;;23.93;100.00;97777.47;5046466;28;20080;-67
2022/07/03 08:47:02;;;;;;;1.85;0.40;;;24.60;99.90;;;24.32;100.00;97779.13;5039599;28;20118;-67
2022/07/03 08:49:30;;;;;;;4.65;0.40;;;24.90;99.90;;;23.33;100.00;97768.88;5042521;28;20083;-67
2022/07/03 08:52:00;;;;;;;2.95;0.35;;;25.00;99.90;;;23.66;100.00;97780.00;5053279;28;20145;-66
2022/07/03 08:54:27;;;;;;;1.25;0.47;;;24.80;99.90;;;23.92;100.00;97772.28;5040333;28;20105;-66
2022/07/03 08:56:54;;;;;;;2.42;0.50;;;24.80;99.90;;;24.25;100.00;97776.22;5042110;28;20134;-66
2022/07/03 08:59:23;;;;;;;3.92;0.50;;;25.00;99.90;;;23.91;100.00;97792.66;5037561;28;20164;-66
2022/07/03 09:01:51;;;;;;;1.48;0.40;;;25.20;99.60;;;24.17;100.00;97776.94;5043376;28;20073;-65
2022/07/03 09:04:18;;;;;;;2.72;0.38;;;25.20;99.90;;;24.24;100.00;97781.66;5026416;28;20140;-66
2022/07/03 09:06:46;;;;;;;4.55;0.57;;;;;;;24.24;100.00;97779.00;5044068;28;20053;-66
2022/07/03 09:09:13;;;;;;;2.13;0.40;;;25.70;99.90;;;24.60;100.00;97782.63;5039056;28;20045;-66
2022/07/03 09:11:40;;;;;;;0.93;0.30;;;25.90;99.90;;;24.25;100.00;97776.22;5037317;28;20183;-67
2022/07/03 09:14:07;;;;;;;7.72;0.50;;;26.00;99.90;;;24.77;100.00;97778.31;5035993;28;20144;-66
2022/07/03 09:16:35;;;;;;;1.75;0.30;;;26.00;99.90;;;25.23;100.00;97768.53;5038238;28;20075;-67
2022/07/03 09:19:04;;;;;;;3.05;0.40;;;26.30;99.90;;;25.40;100.00;97772.97;5037752;28;20499;-67
2022/07/03 09:21:40;;;;;;;0.55;0.30;;;26.40;99.90;;;25.40;100.00;97770.28;5037753;28;20063;-66
2022/07/03 09:24:09;;;;;;;1.05;0.35;;;26.60;99.90;;;25.59;100.00;97774.63;5041955;28;20167;-67
2022/07/03 09:26:52;;;;;;;1.77;0.32;;;26.90;99.90;;;25.41;100.00;97766.66;5042237;28;20052;-66
2022/07/03 09:29:19;;;;;;;1.23;0.40;;;27.00;98.90;;;25.35;100.00;97775.25;5039914;28;20132;-66
2022/07/03 09:31:55;;;;;;;1.42;0.30;;;26.90;99.50;;;26.20;100.00;97775.47;5040126;28;20059;-67
2022/07/03 09:34:23;;;;;;;2.10;0.30;;;27.00;99.10;;;26.45;100.00;97765.75;5043918;28;20076;-67
2022/07/03 09:36:51;;;;;;;1.15;0.40;;;27.10;98.20;;;26.76;100.00;97770.56;5043806;28;20045;-66
2022/07/03 09:39:34;;;;;;;3.35;0.30;;;27.40;94.90;;;26.69;100.00;97773.03;5039502;28;20050;-66
2022/07/03 09:42:05;;;;;;;3.47;0.40;;;27.50;93.80;;;26.31;100.00;97782.34;5042590;28;20049;-67
2022/07/03 09:44:33;;;;;;;1.30;0.30;;;27.60;93.70;;;26.09;100.00;97789.06;5043877;28;20456;-65
2022/07/03 09:47:10;;;;;;;2.58;0.40;;;27.40;92.90;;;26.22;100.00;97778.81;5039499;28;20049;-65
2022/07/03 09:50:00;;;;;;;1.05;0.30;;;27.30;92.90;;;25.77;100.00;97784.34;5041006;28;20076;-66
2022/07/03 09:52:34;;;;;;;1.23;0.30;;;27.00;93.00;;;26.14;100.00;97767.28;5038580;28;20567;-69
2022/07/03 09:55:21;;;;;;;2.53;0.32;;;26.80;93.10;;;26.15;100.00;97772.47;5040075;28;20064;-66
2022/07/03 09:57:52;;;;;;;1.73;0.30;;;26.70;94.50;;;26.95;100.00;97763.28;5043450;28;20579;-66
2022/07/03 10:00:29;;;;;;;3.03;0.50;;;26.80;93.80;;;26.61;100.00;97769.50;5037872;28;20133;-67
2022/07/03 10:02:57;;;;;;;3.90;0.40;;;27.10;93.60;;;27.39;100.00;97766.47;5036384;28;20056;-66
2022/07/03 10:05:26;;;;;;;2.72;0.35;;;27.20;93.70;;;27.12;100.00;97767.63;5038480;28;20581;-65
2022/07/03 10:08:15;;;;;;;3.42;0.20;;;27.40;93.60;;;25.60;100.00;97778.09;5038628;28;20053;-66
2022/07/03 10:10:45;;;;;;;6.75;0.30;;;27.10;92.40;;;25.58;100.00;97774.75;5039152;28;20136;-66
2022/07/03 10:13:14;;;;;;;2.05;0.38;;;26.80;92.50;;;27.43;100.00;97759.81;5040265;28;20049;-66
2022/07/03 10:15:43;;;;;;;1.00;0.20;;;27.20;95.00;;;28.40;100.00;97761.63;5039952;28;20105;-67
2022/07/03 10:18:13;;;;;;;2.30;0.40;;;27.80;93.70;;;27.89;100.00;97756.59;5038465;28;20092;-64
2022/07/03 10:20:41;;;;;;;2.38;0.20;;;28.20;92.30;;;26.76;100.00;97767.91;5036695;28;20053;-67
2022/07/03 10:23:08;;;;;;;4.55;0.30;;;28.00;90.90;;;27.45;100.00;97755.16;5042059;28;20084;-67
2022/07/03 10:25:40;;;;;;;1.92;0.30;;;27.90;91.60;;;28.23;100.00;97772.34;5039748;28;20159;-67
2022/07/03 10:28:07;;;;;;;;;;;28.40;91.10;;;26.86;100.00;97767.75;5039991;28;20084;-66
2022/07/03 10:30:34;;;;;;;1.35;0.30;;;28.30;90.10;;;26.91;100.00;97768.06;5036203;28;20078;-67
2022/07/03 10:33:01;;;;;;;1.30;0.28;;;28.20;89.90;;;27.94;100.00;97764.97;5055131;28;20053;-67
2022/07/03 10:35:43;;;;;;;2.00;0.40;;;28.30;90.60;;;27.63;100.00;97768.28;5038046;28;20044;-67